createdAt,value
2023-03-10T00:00:13.963Z,2.03
2023-03-10T00:01:18.579Z,2.30
2023-03-10T00:02:20.847Z,1.85
2023-03-10T00:03:23.725Z,2.10
2023-03-10T00:04:25.642Z,2.00
2023-03-10T00:05:28.529Z,1.90
2023-03-10T00:06:33.581Z,2.05
2023-03-10T00:07:36.782Z,1.65
2023-03-10T00:08:39.210Z,2.13
2023-03-10T00:09:42.063Z,2.13
2023-03-10T00:10:43.888Z,2.20
2023-03-10T00:11:48.116Z,1.90
2023-03-10T00:12:50.052Z,1.85
2023-03-10T00:13:53.210Z,2.10
2023-03-10T00:14:56.444Z,2.30
2023-03-10T00:15:59.621Z,1.63
2023-03-10T00:17:01.452Z,1.88
2023-03-10T00:18:04.502Z,1.95
2023-03-10T00:19:06.599Z,1.40
2023-03-10T00:20:12.780Z,2.47
2023-03-10T00:21:15.687Z,1.70
2023-03-10T00:22:18.550Z,1.95
2023-03-10T00:23:21.581Z,1.70
2023-03-10T00:24:24.467Z,2.20
2023-03-10T00:25:26.542Z,1.75
2023-03-10T00:26:30.534Z,2.10
2023-03-10T00:27:33.906Z,1.80
2023-03-10T00:28:36.754Z,1.70
2023-03-10T00:29:38.804Z,1.80
2023-03-10T00:30:41.569Z,1.20
2023-03-10T00:31:43.846Z,1.40
2023-03-10T00:32:46.841Z,2.00
2023-03-10T00:33:49.297Z,1.80
2023-03-10T00:34:52.096Z,1.80
2023-03-10T00:36:06.180Z,1.73
2023-03-10T00:37:09.365Z,1.65
2023-03-10T00:38:11.212Z,1.30
2023-03-10T00:39:14.045Z,1.50
2023-03-10T00:40:17.041Z,1.60
2023-03-10T00:41:21.272Z,1.67
2023-03-10T00:42:24.517Z,1.70
2023-03-10T00:43:28.859Z,1.73
2023-03-10T00:44:31.672Z,1.40
2023-03-10T00:45:35.452Z,1.45
2023-03-10T00:46:39.477Z,2.22
2023-03-10T00:47:41.338Z,2.00
2023-03-10T00:48:44.955Z,1.58
2023-03-10T00:49:47.868Z,1.30
2023-03-10T00:50:50.711Z,1.23
2023-03-10T00:51:53.720Z,1.42
2023-03-10T00:52:55.601Z,1.67
2023-03-10T00:54:00.050Z,1.50
2023-03-10T00:55:01.928Z,1.35
2023-03-10T00:56:08.171Z,1.48
2023-03-10T00:57:10.409Z,1.65
2023-03-10T00:58:13.270Z,1.60
2023-03-10T00:59:17.691Z,1.90
2023-03-10T01:00:20.934Z,1.83
2023-03-10T01:01:26.151Z,1.10
2023-03-10T01:02:28.474Z,2.33
2023-03-10T01:03:34.354Z,1.88
2023-03-10T01:04:37.293Z,1.52
2023-03-10T01:05:39.887Z,1.50
2023-03-10T01:06:45.196Z,2.00
2023-03-10T01:07:47.129Z,1.80
2023-03-10T01:08:50.627Z,1.33
2023-03-10T01:09:52.497Z,1.35
2023-03-10T01:10:55.403Z,1.50
2023-03-10T01:11:57.411Z,1.70
2023-03-10T01:13:00.302Z,1.25
2023-03-10T01:14:05.348Z,1.67
2023-03-10T01:15:12.073Z,1.33
2023-03-10T01:16:14.168Z,1.42
2023-03-10T01:17:17.166Z,1.55
2023-03-10T01:18:20.048Z,1.90
2023-03-10T01:19:23.307Z,2.45
2023-03-10T01:20:25.217Z,1.50
2023-03-10T01:21:30.076Z,1.38
2023-03-10T01:22:31.989Z,1.50
2023-03-10T01:23:35.031Z,2.10
2023-03-10T01:24:37.896Z,1.80
2023-03-10T01:25:39.812Z,1.75
2023-03-10T01:26:42.789Z,1.45
2023-03-10T01:27:44.798Z,1.70
2023-03-10T01:28:48.114Z,1.55
2023-03-10T01:29:49.994Z,1.52
2023-03-10T01:30:54.605Z,1.30
2023-03-10T01:31:56.611Z,1.00
2023-03-10T01:32:59.511Z,1.30
2023-03-10T01:34:01.375Z,1.35
2023-03-10T01:35:05.281Z,1.40
2023-03-10T01:36:08.788Z,1.30
2023-03-10T01:37:11.764Z,1.50
2023-03-10T01:38:13.857Z,1.42
2023-03-10T01:39:16.763Z,1.58
2023-03-10T01:40:19.045Z,1.02
2023-03-10T01:41:22.005Z,1.30
2023-03-10T01:42:23.885Z,1.20
2023-03-10T01:43:31.998Z,1.50
2023-03-10T01:44:34.978Z,1.65
2023-03-10T01:46:28.929Z,1.30
2023-03-10T01:47:35.223Z,1.30
2023-03-10T01:48:39.027Z,1.00
2023-03-10T01:49:45.768Z,1.15
2023-03-10T01:50:51.564Z,1.40
2023-03-10T01:52:01.224Z,1.30
2023-03-10T01:53:03.825Z,1.75
2023-03-10T01:54:10.408Z,1.30
2023-03-10T01:55:16.725Z,1.38
2023-03-10T01:56:19.607Z,1.23
2023-03-10T01:57:25.821Z,1.30
2023-03-10T01:58:32.062Z,1.50
2023-03-10T01:59:35.582Z,1.42
2023-03-10T02:00:37.558Z,1.23
2023-03-10T02:01:40.682Z,1.90
2023-03-10T02:02:50.302Z,1.02
2023-03-10T02:03:59.208Z,1.30
2023-03-10T02:05:02.578Z,1.58
2023-03-10T02:06:12.658Z,1.30
2023-03-10T02:07:19.765Z,1.55
2023-03-10T02:08:24.032Z,1.70
2023-03-10T02:09:28.069Z,1.20
2023-03-10T02:10:30.213Z,1.65
2023-03-10T02:11:33.551Z,1.40
2023-03-10T02:12:35.474Z,1.35
2023-03-10T02:13:38.643Z,1.40
2023-03-10T02:14:41.385Z,1.27
2023-03-10T02:15:44.667Z,1.38
2023-03-10T02:16:46.690Z,1.17
2023-03-10T02:17:53.106Z,1.42
2023-03-10T02:18:55.130Z,1.30
2023-03-10T02:20:21.102Z,1.67
2023-03-10T02:21:34.102Z,1.25
2023-03-10T02:22:37.932Z,1.58
2023-03-10T02:23:58.813Z,1.23
2023-03-10T02:25:15.194Z,1.23
2023-03-10T02:26:26.902Z,1.27
2023-03-10T02:27:34.676Z,1.35
2023-03-10T02:28:36.558Z,1.40
2023-03-10T02:29:58.052Z,1.27
2023-03-10T02:31:03.152Z,1.70
2023-03-10T02:32:06.238Z,1.60
2023-03-10T02:33:13.118Z,2.35
2023-03-10T02:34:15.205Z,1.70
2023-03-10T02:35:18.945Z,1.33
2023-03-10T02:36:35.825Z,1.60
2023-03-10T02:37:39.740Z,1.50
2023-03-10T02:38:42.700Z,1.45
2023-03-10T02:39:45.231Z,1.70
2023-03-10T02:40:49.740Z,1.00
2023-03-10T02:41:59.179Z,1.10
2023-03-10T02:43:06.720Z,1.70
2023-03-10T02:44:12.947Z,1.38
2023-03-10T02:45:15.903Z,2.35
2023-03-10T02:46:18.472Z,1.33
2023-03-10T02:47:22.468Z,1.13
2023-03-10T02:48:28.663Z,1.45
2023-03-10T02:49:33.934Z,1.52
2023-03-10T02:50:38.761Z,1.38
2023-03-10T02:51:45.483Z,1.48
2023-03-10T02:52:53.271Z,1.48
2023-03-10T02:53:56.340Z,1.30
2023-03-10T02:54:59.786Z,1.50
2023-03-10T02:56:03.605Z,1.60
2023-03-10T02:57:07.836Z,1.52
2023-03-10T02:58:12.487Z,1.40
2023-03-10T02:59:15.026Z,1.30
2023-03-10T03:00:23.059Z,1.42
2023-03-10T03:01:26.255Z,1.35
2023-03-10T03:02:32.992Z,1.40
2023-03-10T03:03:35.306Z,1.20
2023-03-10T03:04:38.303Z,1.35
2023-03-10T03:05:40.748Z,1.60
2023-03-10T03:06:43.784Z,1.27
2023-03-10T03:07:45.655Z,1.45
2023-03-10T03:08:49.053Z,1.80
2023-03-10T03:09:55.169Z,1.33
2023-03-10T03:10:58.161Z,1.20
2023-03-10T03:12:01.547Z,1.30
2023-03-10T03:13:05.455Z,1.08
2023-03-10T03:14:09.050Z,1.23
2023-03-10T03:15:13.147Z,1.80
2023-03-10T03:16:15.123Z,1.10
2023-03-10T03:17:19.993Z,1.30
2023-03-10T03:18:22.114Z,1.20
2023-03-10T03:19:25.239Z,1.45
2023-03-10T03:20:29.516Z,1.40
2023-03-10T03:21:32.510Z,0.95
2023-03-10T03:22:34.706Z,0.93
2023-03-10T03:23:38.800Z,1.40
2023-03-10T03:24:41.959Z,1.00
2023-03-10T03:25:44.893Z,1.00
2023-03-10T03:26:50.151Z,0.98
2023-03-10T03:27:57.127Z,0.95
2023-03-10T03:28:59.135Z,1.40
2023-03-10T03:30:11.644Z,1.17
2023-03-10T03:31:18.794Z,1.10
2023-03-10T03:32:22.957Z,1.00
2023-03-10T03:33:24.853Z,1.33
2023-03-10T03:34:28.281Z,1.48
2023-03-10T03:35:36.064Z,1.35
2023-03-10T03:36:39.792Z,0.95
2023-03-10T03:37:44.054Z,1.00
2023-03-10T03:38:47.489Z,0.98
2023-03-10T03:39:51.396Z,0.98
2023-03-10T03:40:54.646Z,0.90
2023-03-10T03:41:57.434Z,1.02
2023-03-10T03:43:04.183Z,1.15
2023-03-10T03:44:06.093Z,1.23
2023-03-10T03:45:16.798Z,1.20
2023-03-10T03:46:18.722Z,1.10
2023-03-10T03:47:22.015Z,1.10
2023-03-10T03:48:24.093Z,1.00
2023-03-10T03:49:27.703Z,1.35
2023-03-10T03:50:30.156Z,1.10
2023-03-10T03:51:39.407Z,1.50
2023-03-10T03:52:42.183Z,0.88
2023-03-10T03:53:45.611Z,1.20
2023-03-10T03:54:47.942Z,1.05
2023-03-10T03:55:51.419Z,0.77
2023-03-10T03:56:56.502Z,1.10
2023-03-10T03:57:59.485Z,0.90
2023-03-10T03:59:01.391Z,1.02
2023-03-10T04:00:07.455Z,1.15
2023-03-10T04:01:16.992Z,1.10
2023-03-10T04:02:24.472Z,1.05
2023-03-10T04:03:27.833Z,0.73
2023-03-10T04:04:30.031Z,0.90
2023-03-10T04:05:33.108Z,1.25
2023-03-10T04:06:35.754Z,0.70
2023-03-10T04:07:40.011Z,0.80
2023-03-10T04:08:44.477Z,0.88
2023-03-10T04:09:47.315Z,1.40
2023-03-10T04:10:53.817Z,0.85
2023-03-10T04:11:57.802Z,1.08
2023-03-10T04:13:00.830Z,0.93
2023-03-10T04:14:03.076Z,1.20
2023-03-10T04:15:08.386Z,1.15
2023-03-10T04:16:10.512Z,0.90
2023-03-10T04:17:17.054Z,0.90
2023-03-10T04:18:19.204Z,0.80
2023-03-10T04:19:22.110Z,1.10
2023-03-10T04:20:27.538Z,0.70
2023-03-10T04:21:30.670Z,1.20
2023-03-10T04:22:34.165Z,0.65
2023-03-10T04:23:37.182Z,1.00
2023-03-10T04:24:39.749Z,1.08
2023-03-10T04:25:43.432Z,1.00
2023-03-10T04:26:47.567Z,0.90
2023-03-10T04:27:50.596Z,0.95
2023-03-10T04:28:52.967Z,0.98
2023-03-10T04:29:57.370Z,1.05
2023-03-10T04:30:59.595Z,0.80
2023-03-10T04:32:07.105Z,0.95
2023-03-10T04:33:16.383Z,0.90
2023-03-10T04:34:19.100Z,1.20
2023-03-10T04:35:21.990Z,1.40
2023-03-10T04:36:23.924Z,0.88
2023-03-10T04:37:31.701Z,0.85
2023-03-10T04:38:34.783Z,1.00
2023-03-10T04:39:37.211Z,1.15
2023-03-10T04:40:41.163Z,1.58
2023-03-10T04:41:43.358Z,0.80
2023-03-10T04:42:46.763Z,0.93
2023-03-10T04:43:49.367Z,1.42
2023-03-10T04:44:54.140Z,1.10
2023-03-10T04:45:56.725Z,1.02
2023-03-10T04:47:00.520Z,1.00
2023-03-10T04:48:03.053Z,1.10
2023-03-10T04:49:08.156Z,1.25
2023-03-10T04:50:12.837Z,0.90
2023-03-10T04:51:14.823Z,1.00
2023-03-10T04:52:24.644Z,1.02
2023-03-10T04:53:26.960Z,1.08
2023-03-10T04:54:29.862Z,1.15
2023-03-10T04:55:33.293Z,1.10
2023-03-10T04:56:37.284Z,1.77
2023-03-10T04:57:40.947Z,1.27
2023-03-10T04:58:43.238Z,0.95
2023-03-10T04:59:46.714Z,0.65
2023-03-10T05:01:02.366Z,0.93
2023-03-10T05:02:06.903Z,1.02
2023-03-10T05:03:08.963Z,1.40
2023-03-10T05:04:13.315Z,1.35
2023-03-10T05:05:15.304Z,1.23
2023-03-10T05:06:22.980Z,1.13
2023-03-10T05:07:34.595Z,1.08
2023-03-10T05:08:37.091Z,1.02
2023-03-10T05:09:40.088Z,1.00
2023-03-10T05:10:43.824Z,1.33
2023-03-10T05:11:46.817Z,0.80
2023-03-10T05:12:49.050Z,1.08
2023-03-10T05:13:52.182Z,1.25
2023-03-10T05:14:54.118Z,1.00
2023-03-10T05:15:57.038Z,2.10
2023-03-10T05:16:58.965Z,1.95
2023-03-10T05:18:01.937Z,1.10
2023-03-10T05:19:03.950Z,1.10
2023-03-10T05:20:11.532Z,1.00
2023-03-10T05:21:14.134Z,1.00
2023-03-10T05:22:18.169Z,1.10
2023-03-10T05:23:20.037Z,0.85
2023-03-10T05:24:23.037Z,1.10
2023-03-10T05:25:25.243Z,1.30
2023-03-10T05:26:29.101Z,0.88
2023-03-10T05:27:32.593Z,1.13
2023-03-10T05:28:36.442Z,0.93
2023-03-10T05:29:39.174Z,1.20
2023-03-10T05:30:49.143Z,1.42
2023-03-10T05:31:52.540Z,1.02
2023-03-10T05:33:00.832Z,1.10
2023-03-10T05:34:03.811Z,0.90
2023-03-10T05:35:06.612Z,1.13
2023-03-10T05:36:14.600Z,1.00
2023-03-10T05:37:19.047Z,1.05
2023-03-10T05:38:21.904Z,0.80
2023-03-10T05:39:23.896Z,0.80
2023-03-10T05:40:30.187Z,1.10
2023-03-10T05:41:32.339Z,1.00
2023-03-10T05:42:35.758Z,0.77
2023-03-10T05:43:39.819Z,1.00
2023-03-10T05:44:44.211Z,0.90
2023-03-10T05:45:54.507Z,1.10
2023-03-10T05:46:57.489Z,1.02
2023-03-10T05:47:59.428Z,1.10
2023-03-10T05:49:02.325Z,0.85
2023-03-10T05:50:05.750Z,2.83
2023-03-10T05:51:13.462Z,0.63
2023-03-10T05:52:15.483Z,0.90
2023-03-10T05:53:19.947Z,0.90
2023-03-10T05:54:22.201Z,1.67
2023-03-10T05:55:25.352Z,0.88
2023-03-10T05:56:27.272Z,0.80
2023-03-10T05:57:34.352Z,0.70
2023-03-10T05:58:36.800Z,0.73
2023-03-10T05:59:39.770Z,1.00
2023-03-10T06:00:42.368Z,0.82
2023-03-10T06:01:45.608Z,0.80
2023-03-10T06:02:47.790Z,0.63
2023-03-10T06:03:50.974Z,0.50
2023-03-10T06:04:53.984Z,0.80
2023-03-10T06:05:56.037Z,0.70
2023-03-10T06:07:01.526Z,0.60
2023-03-10T06:08:04.953Z,1.02
2023-03-10T06:09:07.647Z,0.88
2023-03-10T06:10:11.742Z,0.60
2023-03-10T06:11:13.648Z,0.80
2023-03-10T06:12:16.590Z,0.63
2023-03-10T06:13:20.060Z,1.02
2023-03-10T06:14:26.324Z,0.70
2023-03-10T06:15:28.400Z,0.95
2023-03-10T06:16:31.577Z,0.70
2023-03-10T06:17:33.596Z,0.70
2023-03-10T06:18:36.673Z,0.90
2023-03-10T06:19:38.549Z,0.77
2023-03-10T06:20:41.422Z,0.63
2023-03-10T06:21:43.348Z,0.70
2023-03-10T06:22:47.612Z,0.80
2023-03-10T06:23:51.047Z,0.90
2023-03-10T06:24:53.983Z,0.80
2023-03-10T06:25:57.254Z,0.68
2023-03-10T06:27:00.294Z,1.05
2023-03-10T06:28:02.159Z,0.90
2023-03-10T06:29:05.313Z,0.70
2023-03-10T06:30:08.533Z,0.90
2023-03-10T06:31:15.495Z,0.88
2023-03-10T06:32:18.920Z,0.73
2023-03-10T06:33:20.842Z,0.80
2023-03-10T06:34:23.922Z,0.70
2023-03-10T06:35:26.001Z,0.60
2023-03-10T06:36:31.829Z,0.95
2023-03-10T06:37:37.473Z,1.00
2023-03-10T06:38:41.508Z,1.02
2023-03-10T06:39:44.498Z,1.40
2023-03-10T06:40:47.508Z,1.15
2023-03-10T06:41:50.449Z,0.90
2023-03-10T06:42:53.280Z,0.85
2023-03-10T06:43:55.195Z,1.02
2023-03-10T06:44:58.206Z,1.10
2023-03-10T06:46:03.851Z,0.60
2023-03-10T06:47:07.277Z,0.77
2023-03-10T06:48:09.226Z,0.80
2023-03-10T06:49:16.904Z,0.85
2023-03-10T06:50:18.953Z,0.70
2023-03-10T06:51:22.969Z,1.20
2023-03-10T06:52:24.918Z,0.60
2023-03-10T06:53:28.147Z,1.83
2023-03-10T06:54:31.443Z,1.00
2023-03-10T06:55:34.265Z,0.80
2023-03-10T06:56:36.126Z,0.80
2023-03-10T06:57:38.982Z,0.90
2023-03-10T06:58:41.606Z,1.23
2023-03-10T06:59:44.456Z,1.20
2023-03-10T07:00:46.335Z,0.88
2023-03-10T07:01:49.367Z,0.80
2023-03-10T07:02:52.292Z,1.50
2023-03-10T07:03:54.919Z,0.88
2023-03-10T07:04:58.112Z,0.70
2023-03-10T07:06:01.003Z,0.75
2023-03-10T07:07:03.949Z,0.80
2023-03-10T07:08:06.222Z,0.73
2023-03-10T07:09:09.111Z,0.75
2023-03-10T07:10:12.747Z,1.10
2023-03-10T07:11:16.303Z,0.85
2023-03-10T07:12:18.315Z,1.40
2023-03-10T07:13:22.008Z,0.93
2023-03-10T07:14:23.906Z,1.35
2023-03-10T07:15:27.270Z,1.40
2023-03-10T07:16:30.298Z,6.85
2023-03-10T07:17:32.205Z,3.50
2023-03-10T07:18:35.899Z,2.53
2023-03-10T07:19:37.809Z,1.20
2023-03-10T07:20:41.623Z,0.90
2023-03-10T07:21:43.503Z,1.48
2023-03-10T07:22:47.241Z,0.70
2023-03-10T07:23:50.339Z,0.90
2023-03-10T07:24:55.550Z,1.20
2023-03-10T07:25:58.941Z,1.75
2023-03-10T07:27:02.611Z,0.90
2023-03-10T07:28:05.835Z,1.00
2023-03-10T07:29:08.795Z,1.73
2023-03-10T07:30:12.902Z,1.30
2023-03-10T07:31:17.869Z,1.55
2023-03-10T07:32:20.820Z,1.38
2023-03-10T07:33:22.960Z,1.00
2023-03-10T07:34:25.881Z,0.93
2023-03-10T07:35:28.002Z,0.93
2023-03-10T07:36:31.037Z,1.10
2023-03-10T07:37:32.924Z,1.20
2023-03-10T07:38:36.411Z,1.33
2023-03-10T07:39:38.285Z,1.15
2023-03-10T07:40:41.249Z,1.10
2023-03-10T07:41:44.565Z,1.30
2023-03-10T07:42:47.594Z,1.55
2023-03-10T07:43:52.879Z,1.42
2023-03-10T07:44:55.884Z,2.45
2023-03-10T07:45:57.856Z,1.52
2023-03-10T07:47:00.790Z,1.35
2023-03-10T07:48:03.124Z,1.08
2023-03-10T07:49:06.807Z,1.00
2023-03-10T07:50:10.060Z,1.10
2023-03-10T07:51:13.251Z,1.52
2023-03-10T07:52:15.552Z,1.05
2023-03-10T07:53:18.448Z,1.20
2023-03-10T07:54:21.454Z,1.27
2023-03-10T07:55:23.563Z,1.27
2023-03-10T07:56:26.830Z,1.48
2023-03-10T07:57:31.269Z,1.25
2023-03-10T07:58:34.797Z,1.33
2023-03-10T07:59:39.247Z,1.10
2023-03-10T08:00:42.180Z,1.30
2023-03-10T08:01:44.053Z,1.20
2023-03-10T08:02:46.959Z,1.42
2023-03-10T08:03:49.341Z,1.00
2023-03-10T08:04:52.596Z,2.20
2023-03-10T08:05:55.335Z,1.73
2023-03-10T08:06:59.329Z,1.77
2023-03-10T08:08:01.288Z,1.50
2023-03-10T08:09:04.385Z,1.45
2023-03-10T08:10:07.490Z,1.30
2023-03-10T08:11:10.840Z,1.05
2023-03-10T08:12:14.282Z,1.85
2023-03-10T08:13:17.609Z,1.33
2023-03-10T08:14:23.949Z,1.40
2023-03-10T08:15:26.416Z,1.33
2023-03-10T08:16:29.495Z,1.02
2023-03-10T08:17:33.367Z,1.73
2023-03-10T08:18:36.700Z,0.90
2023-03-10T08:19:39.377Z,1.40
2023-03-10T08:20:42.310Z,1.45
2023-03-10T08:21:44.777Z,1.33
2023-03-10T08:22:49.084Z,1.00
2023-03-10T08:23:53.258Z,1.63
2023-03-10T08:24:57.279Z,1.30
2023-03-10T08:26:08.827Z,1.73
2023-03-10T08:27:12.746Z,1.33
2023-03-10T08:28:15.901Z,1.30
2023-03-10T08:29:20.692Z,1.30
2023-03-10T08:30:22.637Z,1.20
2023-03-10T08:31:25.673Z,1.40
2023-03-10T08:32:28.794Z,1.35
2023-03-10T08:33:30.875Z,1.52
2023-03-10T08:34:34.782Z,1.15
2023-03-10T08:35:39.346Z,0.93
2023-03-10T08:36:43.899Z,1.73
2023-03-10T08:37:46.429Z,1.13
2023-03-10T08:38:50.390Z,1.63
2023-03-10T08:39:53.961Z,2.05
2023-03-10T08:40:56.795Z,1.33
2023-03-10T08:41:59.929Z,1.15
2023-03-10T08:43:01.835Z,1.60
2023-03-10T08:44:06.342Z,1.20
2023-03-10T08:45:12.474Z,1.20
2023-03-10T08:46:14.631Z,1.00
2023-03-10T08:47:17.570Z,0.85
2023-03-10T08:48:19.485Z,1.40
2023-03-10T08:49:23.346Z,1.17
2023-03-10T08:50:25.190Z,1.30
2023-03-10T08:51:29.439Z,1.40
2023-03-10T08:52:31.344Z,1.30
2023-03-10T08:53:35.994Z,1.15
2023-03-10T08:54:38.925Z,1.23
2023-03-10T08:55:41.537Z,2.00
2023-03-10T08:56:44.691Z,1.38
2023-03-10T08:57:46.609Z,0.98
2023-03-10T08:58:49.721Z,1.73
2023-03-10T08:59:51.631Z,1.15
2023-03-10T09:00:55.939Z,1.50
2023-03-10T09:01:58.908Z,1.48
2023-03-10T09:03:00.882Z,0.93
2023-03-10T09:04:05.865Z,1.33
2023-03-10T09:05:08.382Z,1.20
2023-03-10T09:06:11.310Z,1.30
2023-03-10T09:07:14.217Z,6.85
2023-03-10T09:08:16.597Z,1.55
2023-03-10T09:09:19.789Z,1.15
2023-03-10T09:10:22.003Z,1.40
2023-03-10T09:11:28.140Z,1.15
2023-03-10T09:12:35.074Z,1.23
2023-03-10T09:13:39.831Z,0.82
2023-03-10T09:14:42.095Z,1.70
2023-03-10T09:15:45.006Z,1.10
2023-03-10T09:16:48.429Z,1.23
2023-03-10T09:17:51.350Z,1.08
2023-03-10T09:18:53.269Z,1.20
2023-03-10T09:19:56.317Z,1.30
2023-03-10T09:20:58.243Z,1.20
2023-03-10T09:22:01.472Z,1.27
2023-03-10T09:23:05.043Z,1.30
2023-03-10T09:24:07.324Z,1.98
2023-03-10T09:25:11.473Z,1.33
2023-03-10T09:26:14.113Z,0.93
2023-03-10T09:27:18.492Z,1.58
2023-03-10T09:28:20.453Z,1.50
2023-03-10T09:29:41.757Z,1.40
2023-03-10T09:30:45.826Z,1.20
2023-03-10T09:31:50.168Z,1.30
2023-03-10T09:32:52.387Z,1.30
2023-03-10T09:33:56.453Z,1.30
2023-03-10T09:34:58.401Z,1.58
2023-03-10T09:36:07.417Z,1.08
2023-03-10T09:37:10.021Z,1.50
2023-03-10T09:38:14.571Z,1.00
2023-03-10T09:39:17.757Z,1.33
2023-03-10T09:40:21.685Z,1.67
2023-03-10T09:41:40.264Z,0.80
2023-03-10T09:42:44.657Z,0.95
2023-03-10T09:43:56.083Z,1.20
2023-03-10T09:45:10.025Z,1.10
2023-03-10T09:46:21.761Z,1.20
2023-03-10T09:47:29.406Z,1.05
2023-03-10T09:48:51.392Z,1.08
2023-03-10T09:50:11.460Z,1.20
2023-03-10T09:51:17.996Z,1.00
2023-03-10T09:52:27.474Z,0.90
2023-03-10T09:53:49.732Z,0.90
2023-03-10T09:54:59.755Z,0.98
2023-03-10T09:56:05.948Z,0.90
2023-03-10T09:57:16.525Z,0.70
2023-03-10T09:58:29.916Z,1.00
2023-03-10T09:59:38.000Z,0.60
2023-03-10T10:00:44.429Z,0.65
2023-03-10T10:01:49.263Z,0.80
2023-03-10T10:03:02.044Z,0.90
2023-03-10T10:04:09.113Z,0.80
2023-03-10T10:05:18.541Z,0.30
2023-03-10T10:06:28.150Z,0.60
2023-03-10T10:07:42.971Z,0.50
2023-03-10T10:09:03.575Z,0.38
2023-03-10T10:10:15.250Z,0.47
2023-03-10T10:11:18.261Z,0.30
2023-03-10T10:12:23.959Z,0.50
2023-03-10T10:13:30.491Z,0.30
2023-03-10T10:14:33.549Z,0.40
2023-03-10T10:15:38.119Z,0.30
2023-03-10T10:16:48.264Z,0.30
2023-03-10T10:18:18.109Z,0.88
2023-03-10T10:19:24.158Z,0.30
2023-03-10T10:20:32.248Z,0.38
2023-03-10T10:21:43.220Z,0.22
2023-03-10T10:22:45.687Z,0.50
2023-03-10T10:23:51.175Z,0.45
2023-03-10T10:25:11.367Z,0.38
2023-03-10T10:26:16.894Z,0.40
2023-03-10T10:27:21.454Z,0.40
2023-03-10T10:28:34.001Z,0.40
2023-03-10T10:29:42.268Z,0.50
2023-03-10T10:30:44.639Z,0.30
2023-03-10T10:32:04.550Z,0.30
2023-03-10T10:33:10.404Z,0.30
2023-03-10T10:34:21.602Z,0.50
2023-03-10T10:35:25.206Z,0.20
2023-03-10T10:36:30.835Z,0.30
2023-03-10T10:37:38.284Z,0.22
2023-03-10T10:38:50.880Z,0.20
2023-03-10T10:39:56.883Z,0.30
2023-03-10T10:41:03.912Z,0.20
2023-03-10T10:42:19.794Z,0.30
2023-03-10T10:43:23.170Z,0.20
2023-03-10T10:44:26.042Z,0.28
2023-03-10T10:45:33.377Z,0.30
2023-03-10T10:46:35.898Z,0.20
2023-03-10T10:47:49.190Z,0.30
2023-03-10T10:49:04.523Z,0.30
2023-03-10T10:50:18.867Z,0.30
2023-03-10T10:51:28.774Z,0.30
2023-03-10T10:52:33.535Z,0.30
2023-03-10T10:53:40.534Z,0.30
2023-03-10T10:54:44.051Z,0.20
2023-03-10T10:55:49.338Z,0.20
2023-03-10T10:56:53.459Z,0.30
2023-03-10T10:58:01.332Z,0.40
2023-03-10T10:59:07.401Z,0.30
2023-03-10T11:00:18.587Z,0.30
2023-03-10T11:01:21.609Z,0.30
2023-03-10T11:02:31.131Z,0.30
2023-03-10T11:03:36.882Z,0.30
2023-03-10T11:04:45.130Z,0.30
2023-03-10T11:05:48.424Z,0.40
2023-03-10T11:06:52.466Z,0.30
2023-03-10T11:07:54.411Z,0.30
2023-03-10T11:09:08.725Z,0.40
2023-03-10T11:10:14.386Z,0.35
2023-03-10T11:11:29.477Z,0.40
2023-03-10T11:12:36.346Z,0.40
2023-03-10T11:13:55.857Z,0.40
2023-03-10T11:15:12.313Z,0.40
2023-03-10T11:16:18.685Z,0.55
2023-03-10T11:17:28.759Z,0.47
2023-03-10T11:18:36.234Z,0.30
2023-03-10T11:19:55.156Z,0.60
2023-03-10T11:21:05.273Z,0.30
2023-03-10T11:22:23.623Z,0.50
2023-03-10T11:23:34.707Z,0.30
2023-03-10T11:24:47.712Z,0.50
2023-03-10T11:25:55.616Z,0.50
2023-03-10T11:27:04.251Z,0.60
2023-03-10T11:28:34.380Z,0.40
2023-03-10T11:30:00.574Z,0.40
2023-03-10T11:31:15.185Z,0.63
2023-03-10T11:32:27.059Z,0.70
2023-03-10T11:33:36.218Z,0.50
2023-03-10T11:34:43.491Z,1.20
2023-03-10T11:35:51.793Z,0.70
2023-03-10T11:37:06.416Z,0.40
2023-03-10T11:38:32.404Z,0.80
2023-03-10T11:39:44.048Z,0.40
2023-03-10T11:40:49.596Z,0.77
2023-03-10T11:41:59.787Z,0.50
2023-03-10T11:43:09.080Z,0.50
2023-03-10T11:44:20.758Z,0.50
2023-03-10T11:45:28.999Z,0.50
2023-03-10T11:46:39.507Z,0.50
2023-03-10T11:47:51.247Z,0.75
2023-03-10T11:49:06.901Z,1.05
2023-03-10T11:50:19.557Z,1.73
2023-03-10T11:51:29.763Z,0.82
2023-03-10T11:52:33.222Z,0.80
2023-03-10T11:53:41.865Z,0.30
2023-03-10T11:54:49.718Z,0.70
2023-03-10T11:55:53.870Z,0.40
2023-03-10T11:56:58.579Z,0.57
2023-03-10T11:58:05.126Z,0.43
2023-03-10T11:59:14.378Z,0.63
2023-03-10T12:00:26.318Z,0.50
2023-03-10T12:01:34.013Z,0.40
2023-03-10T12:02:45.562Z,0.45
2023-03-10T12:03:56.841Z,0.60
2023-03-10T12:05:06.800Z,0.38
2023-03-10T12:06:13.027Z,0.30
2023-03-10T12:07:22.738Z,0.40
2023-03-10T12:08:28.477Z,0.50
2023-03-10T12:09:39.684Z,0.60
2023-03-10T12:10:42.273Z,0.50
2023-03-10T12:11:45.971Z,0.35
2023-03-10T12:12:49.839Z,0.50
2023-03-10T12:13:58.701Z,0.50
2023-03-10T12:15:05.819Z,0.35
2023-03-10T12:16:14.295Z,0.52
2023-03-10T12:17:18.571Z,0.38
2023-03-10T12:18:20.616Z,0.40
2023-03-10T12:19:23.542Z,0.40
2023-03-10T12:20:28.952Z,0.70
2023-03-10T12:21:32.864Z,0.40
2023-03-10T12:22:39.815Z,0.40
2023-03-10T12:23:43.914Z,2.20
2023-03-10T12:24:48.261Z,0.40
2023-03-10T12:25:51.376Z,0.60
2023-03-10T12:27:03.411Z,0.40
2023-03-10T12:28:14.639Z,0.57
2023-03-10T12:29:35.940Z,0.30
2023-03-10T12:30:46.682Z,0.38
2023-03-10T12:31:51.870Z,0.30
2023-03-10T12:32:53.844Z,0.40
2023-03-10T12:34:14.751Z,0.55
2023-03-10T12:35:40.230Z,0.45
2023-03-10T12:36:46.333Z,0.22
2023-03-10T12:37:49.626Z,0.30
2023-03-10T12:38:53.900Z,0.73
2023-03-10T12:39:55.826Z,0.30
2023-03-10T12:40:59.266Z,1.25
2023-03-10T12:42:03.590Z,0.40
2023-03-10T12:43:35.153Z,0.30
2023-03-10T12:44:48.619Z,1.70
2023-03-10T12:45:51.002Z,0.40
2023-03-10T12:46:59.810Z,0.28
2023-03-10T12:48:10.366Z,0.40
2023-03-10T12:49:25.731Z,0.30
2023-03-10T12:50:37.055Z,0.55
2023-03-10T12:51:42.837Z,0.30
2023-03-10T12:52:55.312Z,0.38
2023-03-10T12:54:02.686Z,0.32
2023-03-10T12:55:17.723Z,0.30
2023-03-10T12:56:23.861Z,0.40
2023-03-10T12:57:32.306Z,0.47
2023-03-10T12:58:38.285Z,0.50
2023-03-10T12:59:45.555Z,0.28
2023-03-10T13:00:51.487Z,0.32
2023-03-10T13:01:59.720Z,0.40
2023-03-10T13:03:08.556Z,0.40
2023-03-10T13:04:16.071Z,0.20
2023-03-10T13:05:21.979Z,0.30
2023-03-10T13:06:30.617Z,0.40
2023-03-10T13:07:34.050Z,0.30
2023-03-10T13:08:47.201Z,0.40
2023-03-10T13:09:50.937Z,0.50
2023-03-10T13:10:56.590Z,0.40
2023-03-10T13:12:05.210Z,0.28
2023-03-10T13:13:10.175Z,0.40
2023-03-10T13:14:15.591Z,0.38
2023-03-10T13:15:24.776Z,0.43
2023-03-10T13:16:28.004Z,0.30
2023-03-10T13:17:32.528Z,0.40
2023-03-10T13:18:36.754Z,0.50
2023-03-10T13:19:39.793Z,0.40
2023-03-10T13:20:43.129Z,0.45
2023-03-10T13:21:51.967Z,0.30
2023-03-10T13:22:57.375Z,0.32
2023-03-10T13:24:03.377Z,0.40
2023-03-10T13:25:10.308Z,0.43
2023-03-10T13:26:17.074Z,0.20
2023-03-10T13:27:24.010Z,0.20
2023-03-10T13:28:30.722Z,0.30
2023-03-10T13:29:34.937Z,0.30
2023-03-10T13:30:37.967Z,0.30
2023-03-10T13:31:41.496Z,0.20
2023-03-10T13:32:53.861Z,0.22
2023-03-10T13:33:58.063Z,0.22
2023-03-10T13:35:14.678Z,0.30
2023-03-10T13:36:38.925Z,0.20
2023-03-10T13:37:41.926Z,0.30
2023-03-10T13:38:43.959Z,0.25
2023-03-10T13:39:50.005Z,0.30
2023-03-10T13:41:00.269Z,0.40
2023-03-10T13:42:05.259Z,0.20
2023-03-10T13:43:19.812Z,0.30
2023-03-10T13:44:25.189Z,0.20
2023-03-10T13:45:33.973Z,0.30
2023-03-10T13:46:37.135Z,0.25
2023-03-10T13:47:42.767Z,0.22
2023-03-10T13:48:47.942Z,0.30
2023-03-10T13:49:53.206Z,0.20
2023-03-10T13:51:16.695Z,0.30
2023-03-10T13:52:21.711Z,0.30
2023-03-10T13:53:25.745Z,0.20
2023-03-10T13:54:31.081Z,0.50
2023-03-10T13:55:40.607Z,0.30
2023-03-10T13:56:45.065Z,0.40
2023-03-10T13:57:49.275Z,0.20
2023-03-10T13:58:53.376Z,0.32
2023-03-10T13:59:58.084Z,0.38
2023-03-10T14:01:01.083Z,0.20
2023-03-10T14:02:05.260Z,0.25
2023-03-10T14:03:09.407Z,0.20
2023-03-10T14:04:18.485Z,0.20
2023-03-10T14:05:43.707Z,0.30
2023-03-10T14:06:46.780Z,0.30
2023-03-10T14:08:00.249Z,0.28
2023-03-10T14:09:15.044Z,0.30
2023-03-10T14:10:20.048Z,0.22
2023-03-10T14:11:35.764Z,0.20
2023-03-10T14:12:39.710Z,0.30
2023-03-10T14:13:44.794Z,0.28
2023-03-10T14:14:47.729Z,0.38
2023-03-10T14:15:54.128Z,0.20
2023-03-10T14:16:59.262Z,0.40
2023-03-10T14:18:18.852Z,0.28
2023-03-10T14:19:50.906Z,0.30
2023-03-10T14:20:52.823Z,0.30
2023-03-10T14:22:01.200Z,0.20
2023-03-10T14:23:26.593Z,0.40
2023-03-10T14:24:29.686Z,0.40
2023-03-10T14:25:32.594Z,0.40
2023-03-10T14:26:37.932Z,0.20
2023-03-10T14:27:43.611Z,0.30
2023-03-10T14:28:45.764Z,0.30
2023-03-10T14:29:51.073Z,0.30
2023-03-10T14:30:54.419Z,0.30
2023-03-10T14:31:56.449Z,0.40